Hendersonville, NC

7:53 AM EDT on March 25, 2017 (GMT -0400)
Maplewood Ct off Hwy 191 Haywood Rd. | | Change Station

Elev 2126 ft 35.33 °N, 82.48 °W | Updated 0 second ago

Partly Cloudy
Partly Cloudy
49.0 °F
Feels Like 49 °F
N
0.0
Wind Variable Wind from East
Gusts 0.0 mph

Today
High -- | Low -- °F
--% Chance of Precip.
Yesterday
High -- | Low -- °F
Precip. -- in
Pressure 30.28 in
Visibility 10.0 miles
Clouds Scattered Clouds 2300 ft
Windchill 49 °F
Dew Point 47 °F
Humidity 91%
Rainfall 0.00 in
Snow Depth Not available.
7:25 AM 7:45 PM
Waning Crescent, 9% visible
METAR KAVL 251054Z 16007KT 10SM SCT023 12/08 A3032 RMK AO2 SLP254 T01220083
Pressure 30.28 in
Visibility 10.0 miles
Clouds Scattered Clouds 2300 ft
Windchill 49 °F
Dew Point 47 °F
Humidity 91%
Rainfall 0.00 in
Snow Depth Not available.
7:25 AM 7:45 PM
Waning Crescent, 9% visible
METAR KAVL 251054Z 16007KT 10SM SCT023 12/08 A3032 RMK AO2 SLP254 T01220083

Get Severe Weather Alerts

Thanks for signing up!

Be on the lookout for a verification email in your inbox.

You'll start receiving the daily forecast at 8 AM.

×

10-Day Weather Forecast

Almanac

Astronomy

Mar. 25, 2017 Rise Set
Actual Time
Civil Twilight
Nautical Twilight
Astronomical Twilight
Moon
Length of Visible Light
Length of Day
Tomorrow will be .
, % of the Moon is Illuminated

Today's Extremes

State Highs State Lows

Community

WunderPhotos

Upload Photos

1,962,540 photos uploaded!

WunderBlog® & News

Nearby

Air Quality

  Air Quality AQ Index Pollutant
Not available.

Snow Depth

Station Depth Elevation

Earthquake Activity

City Distance Mag. Time & Date
Minimum magnitude displayed is 2.5.

Earthquake Activity

City Distance Mag. Time & Date
Minimum magnitude displayed is 2.5.

Coastal Water Temperatures

Place Temperature

Stations

Nearby Weather Stations

Station Location Temp. Windchill Dew Point Humidity Wind Precip. Elev Updated Type
                   

Watches & Warnings

There are currently no watches in effect.